createdAt,value
2022-07-25T00:00:43.203Z,27.00
2022-07-25T00:03:13.507Z,25.65
2022-07-25T00:05:47.504Z,26.33
2022-07-25T00:08:16.662Z,26.25
2022-07-25T00:10:46.056Z,20.27
2022-07-25T00:13:14.997Z,18.13
2022-07-25T00:15:44.156Z,16.17
2022-07-25T00:18:13.129Z,15.05
2022-07-25T00:20:41.916Z,15.13
2022-07-25T00:23:11.258Z,14.25
2022-07-25T00:25:41.373Z,14.35
2022-07-25T00:28:10.256Z,13.73
2022-07-25T00:30:39.242Z,12.77
2022-07-25T00:33:08.385Z,13.50
2022-07-25T00:35:37.637Z,14.18
2022-07-25T00:38:06.536Z,14.48
2022-07-25T00:40:36.095Z,13.88
2022-07-25T00:43:05.296Z,13.35
2022-07-25T00:45:34.324Z,13.20
2022-07-25T00:48:03.538Z,14.07
2022-07-25T00:50:32.781Z,14.43
2022-07-25T00:53:01.733Z,15.00
2022-07-25T00:55:31.611Z,14.60
2022-07-25T00:58:01.121Z,12.75
2022-07-25T01:00:30.658Z,14.05
2022-07-25T01:02:59.941Z,13.38
2022-07-25T01:05:29.638Z,14.38
2022-07-25T01:07:59.237Z,14.85
2022-07-25T01:10:28.276Z,14.80
2022-07-25T01:12:57.537Z,15.35
2022-07-25T01:15:27.167Z,16.17
2022-07-25T01:17:57.762Z,16.05
2022-07-25T01:20:29.454Z,15.93
2022-07-25T01:22:59.019Z,16.50
2022-07-25T01:25:29.332Z,16.70
2022-07-25T01:27:59.347Z,15.20
2022-07-25T01:30:28.472Z,16.30
2022-07-25T01:32:57.626Z,15.82
2022-07-25T01:35:26.812Z,15.38
2022-07-25T01:37:55.731Z,15.25
2022-07-25T01:40:24.717Z,15.25
2022-07-25T01:42:53.885Z,15.70
2022-07-25T01:45:22.905Z,15.20
2022-07-25T01:47:52.095Z,13.52
2022-07-25T01:50:21.200Z,15.15
2022-07-25T01:52:50.221Z,15.23
2022-07-25T01:55:19.775Z,14.63
2022-07-25T01:57:49.714Z,15.40
2022-07-25T02:00:20.497Z,14.07
2022-07-25T02:02:49.646Z,14.63
2022-07-25T02:05:18.673Z,15.40
2022-07-25T02:07:47.774Z,14.48
2022-07-25T02:10:16.785Z,14.85
2022-07-25T02:12:45.699Z,12.90
2022-07-25T02:15:14.809Z,13.27
2022-07-25T02:17:44.948Z,12.52
2022-07-25T02:20:14.119Z,11.13
2022-07-25T02:22:42.987Z,10.68
2022-07-25T02:25:12.102Z,10.48
2022-07-25T02:27:41.449Z,11.27
2022-07-25T02:30:10.678Z,10.68
2022-07-25T02:32:39.861Z,12.10
2022-07-25T02:35:09.994Z,10.35
2022-07-25T02:37:43.082Z,11.85
2022-07-25T02:40:12.704Z,11.15
2022-07-25T02:42:41.540Z,11.77
2022-07-25T02:45:11.772Z,12.07
2022-07-25T02:47:40.914Z,12.25
2022-07-25T02:50:14.603Z,12.80
2022-07-25T02:52:45.192Z,11.57
2022-07-25T02:55:14.319Z,12.80
2022-07-25T02:57:43.318Z,11.90
2022-07-25T03:00:13.094Z,12.48
2022-07-25T03:02:42.656Z,11.13
2022-07-25T03:05:15.624Z,11.98
2022-07-25T03:07:46.117Z,11.55
2022-07-25T03:10:16.300Z,11.20
2022-07-25T03:12:45.838Z,11.00
2022-07-25T03:15:15.578Z,12.02
2022-07-25T03:17:44.580Z,11.90
2022-07-25T03:20:13.680Z,12.02
2022-07-25T03:22:43.088Z,11.55
2022-07-25T03:25:15.683Z,13.02
2022-07-25T03:27:51.176Z,11.77
2022-07-25T03:30:20.080Z,11.98
2022-07-25T03:32:49.419Z,12.55
2022-07-25T03:35:18.517Z,11.73
2022-07-25T03:37:47.419Z,11.40
2022-07-25T03:40:16.508Z,12.70
2022-07-25T03:42:45.608Z,11.25
2022-07-25T03:45:14.380Z,11.80
2022-07-25T03:47:43.467Z,11.95
2022-07-25T03:50:13.311Z,11.15
2022-07-25T03:52:42.281Z,12.25
2022-07-25T03:55:12.544Z,12.18
2022-07-25T03:57:41.631Z,11.50
2022-07-25T04:00:12.017Z,11.50
2022-07-25T04:02:41.353Z,11.77
2022-07-25T04:05:11.046Z,10.75
2022-07-25T04:07:40.729Z,11.48
2022-07-25T04:10:10.901Z,10.48
2022-07-25T04:12:39.965Z,11.48
2022-07-25T04:15:09.717Z,11.60
2022-07-25T04:17:39.677Z,11.18
2022-07-25T04:20:09.300Z,10.57
2022-07-25T04:22:40.962Z,10.75
2022-07-25T04:25:11.497Z,11.45
2022-07-25T04:27:40.252Z,11.93
2022-07-25T04:30:09.828Z,11.48
2022-07-25T04:32:39.027Z,11.25
2022-07-25T04:35:11.563Z,12.95
2022-07-25T04:37:40.834Z,12.10
2022-07-25T04:40:11.641Z,11.38
2022-07-25T04:42:40.733Z,10.85
2022-07-25T04:45:10.312Z,11.48
2022-07-25T04:47:39.595Z,11.68
2022-07-25T04:50:09.356Z,11.95
2022-07-25T04:52:38.945Z,12.43
2022-07-25T04:55:08.345Z,13.07
2022-07-25T04:57:37.720Z,12.02
2022-07-25T05:00:09.183Z,12.50
2022-07-25T05:02:38.226Z,12.63
2022-07-25T05:05:21.149Z,12.23
2022-07-25T05:07:52.700Z,11.32
2022-07-25T05:10:22.014Z,14.38
2022-07-25T05:12:51.309Z,13.40
2022-07-25T05:15:20.777Z,13.48
2022-07-25T05:17:49.973Z,19.35
2022-07-25T05:20:19.373Z,12.63
2022-07-25T05:22:48.490Z,12.15
2022-07-25T05:25:18.855Z,13.02
2022-07-25T05:27:48.506Z,15.43
2022-07-25T05:30:17.795Z,17.80
2022-07-25T05:32:47.570Z,14.00
2022-07-25T05:35:17.926Z,17.90
2022-07-25T05:37:46.770Z,12.30
2022-07-25T05:40:15.899Z,11.80
2022-07-25T05:42:44.828Z,12.27
2022-07-25T05:45:13.968Z,13.45
2022-07-25T05:47:43.206Z,17.10
2022-07-25T05:50:12.071Z,11.80
2022-07-25T05:52:50.780Z,13.05
2022-07-25T05:55:20.148Z,15.00
2022-07-25T05:57:48.952Z,12.23
2022-07-25T06:00:18.101Z,12.82
2022-07-25T06:02:47.194Z,13.52
2022-07-25T06:05:16.564Z,13.25
2022-07-25T06:07:45.641Z,13.18
2022-07-25T06:10:14.679Z,12.88
2022-07-25T06:12:43.880Z,13.23
2022-07-25T06:15:22.635Z,22.65
2022-07-25T06:17:56.369Z,14.93
2022-07-25T06:20:25.744Z,13.20
2022-07-25T06:22:55.205Z,13.98
2022-07-25T06:25:24.593Z,14.73
2022-07-25T06:27:53.828Z,13.20
2022-07-25T06:30:23.073Z,13.43
2022-07-25T06:32:52.190Z,12.50
2022-07-25T06:35:21.736Z,13.77
2022-07-25T06:38:27.619Z,13.52
2022-07-25T06:40:56.821Z,13.48
2022-07-25T06:43:25.877Z,13.55
2022-07-25T06:45:56.067Z,13.55
2022-07-25T06:48:25.500Z,12.90
2022-07-25T06:50:54.529Z,13.50
2022-07-25T06:53:23.527Z,13.90
2022-07-25T06:55:52.716Z,13.65
2022-07-25T06:58:24.059Z,12.60
2022-07-25T07:00:55.368Z,13.75
2022-07-25T07:03:24.488Z,13.80
2022-07-25T07:05:53.815Z,14.00
2022-07-25T07:08:23.024Z,14.68
2022-07-25T07:10:53.231Z,15.07
2022-07-25T07:13:25.250Z,13.85
2022-07-25T07:15:54.821Z,14.43
2022-07-25T07:18:23.900Z,13.30
2022-07-25T07:20:53.400Z,14.00
2022-07-25T07:23:22.748Z,13.25
2022-07-25T07:25:53.939Z,14.67
2022-07-25T07:28:23.142Z,15.32
2022-07-25T07:31:15.293Z,13.70
2022-07-25T07:33:41.547Z,12.65
2022-07-25T07:36:11.368Z,15.57
2022-07-25T07:38:41.356Z,14.02
2022-07-25T07:41:10.350Z,14.40
2022-07-25T07:43:39.701Z,13.15
2022-07-25T07:46:08.958Z,15.55
2022-07-25T07:48:38.544Z,14.40
2022-07-25T07:51:08.044Z,14.90
2022-07-25T07:53:55.395Z,15.00
2022-07-25T07:56:24.677Z,14.32
2022-07-25T07:58:53.729Z,14.68
2022-07-25T08:01:23.302Z,14.18
2022-07-25T08:03:52.612Z,15.00
2022-07-25T08:06:22.006Z,14.73
2022-07-25T08:08:51.041Z,20.60
2022-07-25T08:11:19.873Z,15.50
2022-07-25T08:13:49.113Z,14.32
2022-07-25T08:16:18.462Z,15.77
2022-07-25T08:18:47.852Z,16.67
2022-07-25T08:21:17.131Z,14.50
2022-07-25T08:23:48.084Z,14.98
2022-07-25T08:26:17.297Z,13.55
2022-07-25T08:28:46.427Z,13.02
2022-07-25T08:31:16.336Z,11.75
2022-07-25T08:33:45.562Z,11.80
2022-07-25T08:36:14.736Z,12.10
2022-07-25T08:38:43.706Z,12.00
2022-07-25T08:41:12.624Z,12.68
2022-07-25T08:43:42.874Z,12.43
2022-07-25T08:46:13.630Z,13.70
2022-07-25T08:48:42.672Z,13.38
2022-07-25T08:51:12.708Z,13.45
2022-07-25T08:53:42.262Z,13.05
2022-07-25T08:56:21.151Z,14.13
2022-07-25T08:58:52.032Z,13.98
2022-07-25T09:01:21.365Z,14.05
2022-07-25T09:03:50.650Z,13.55
2022-07-25T09:06:21.865Z,13.90
2022-07-25T09:08:59.873Z,13.30
2022-07-25T09:11:30.137Z,14.40
2022-07-25T09:14:01.388Z,13.88
2022-07-25T09:16:32.543Z,13.87
2022-07-25T09:19:16.371Z,13.20
2022-07-25T09:21:47.852Z,13.65
2022-07-25T09:24:20.447Z,13.68
2022-07-25T09:26:57.801Z,12.40
2022-07-25T09:29:29.816Z,12.80
2022-07-25T09:32:01.094Z,12.73
2022-07-25T09:34:39.182Z,12.00
2022-07-25T09:37:11.024Z,12.57
2022-07-25T09:39:50.322Z,13.18
2022-07-25T09:42:33.159Z,11.48
2022-07-25T09:45:15.963Z,16.40
2022-07-25T09:47:56.806Z,14.20
2022-07-25T09:50:28.204Z,12.90
2022-07-25T09:53:02.936Z,12.35
2022-07-25T09:55:32.671Z,12.68
2022-07-25T09:58:01.416Z,16.25
2022-07-25T10:00:32.779Z,13.30
2022-07-25T10:03:19.414Z,13.63
2022-07-25T10:06:03.427Z,12.80
2022-07-25T10:08:41.534Z,13.65
2022-07-25T10:11:28.898Z,11.88
2022-07-25T10:13:59.206Z,12.32
2022-07-25T10:16:29.018Z,11.45
2022-07-25T10:19:00.197Z,12.40
2022-07-25T10:21:30.240Z,12.37
2022-07-25T10:24:09.085Z,11.63
2022-07-25T10:26:41.279Z,10.77
2022-07-25T10:29:15.104Z,10.25
2022-07-25T10:31:51.443Z,10.73
2022-07-25T10:34:32.622Z,12.95
2022-07-25T10:37:22.352Z,12.73
2022-07-25T10:39:51.566Z,14.88
2022-07-25T10:42:24.114Z,15.45
2022-07-25T10:44:58.655Z,14.52
2022-07-25T10:47:29.780Z,16.58
2022-07-25T10:50:21.895Z,14.52
2022-07-25T10:53:02.366Z,14.07
2022-07-25T10:55:31.379Z,13.82
2022-07-25T10:58:17.446Z,14.63
2022-07-25T11:00:47.298Z,13.25
2022-07-25T11:03:18.605Z,12.98
2022-07-25T11:05:49.101Z,13.93
2022-07-25T11:08:22.646Z,13.65
2022-07-25T11:10:56.227Z,13.30
2022-07-25T11:13:25.864Z,11.70
2022-07-25T11:15:59.661Z,11.50
2022-07-25T11:18:37.665Z,11.70
2022-07-25T11:21:08.853Z,11.50
2022-07-25T11:23:38.290Z,12.30
2022-07-25T11:26:13.594Z,11.90
2022-07-25T11:28:47.406Z,14.27
2022-07-25T11:31:17.975Z,14.45
2022-07-25T11:33:49.807Z,14.70
2022-07-25T11:36:19.440Z,14.20
2022-07-25T11:38:52.182Z,13.38
2022-07-25T11:41:31.176Z,14.45
2022-07-25T11:44:00.400Z,13.60
2022-07-25T11:46:29.487Z,13.85
2022-07-25T11:49:07.314Z,13.23
2022-07-25T11:51:40.754Z,13.32
2022-07-25T11:54:14.257Z,13.27
2022-07-25T11:56:44.706Z,13.13
2022-07-25T11:59:14.027Z,14.63
2022-07-25T12:01:44.732Z,13.65
2022-07-25T12:04:19.841Z,13.13
2022-07-25T12:06:51.910Z,11.95
2022-07-25T12:09:23.175Z,14.00
2022-07-25T12:12:03.051Z,13.27
2022-07-25T12:14:35.401Z,12.13
2022-07-25T12:17:04.677Z,11.40
2022-07-25T12:19:33.631Z,11.25
2022-07-25T12:22:02.609Z,13.57
2022-07-25T12:24:31.898Z,13.23
2022-07-25T12:27:00.714Z,11.38
2022-07-25T12:29:29.844Z,11.45
2022-07-25T12:31:58.972Z,11.40
2022-07-25T12:34:27.816Z,12.60
2022-07-25T12:36:57.392Z,12.38
2022-07-25T12:39:26.464Z,14.85
2022-07-25T12:41:55.393Z,14.80
2022-07-25T12:44:24.476Z,15.70
2022-07-25T12:46:53.946Z,15.23
2022-07-25T12:49:23.477Z,13.80
2022-07-25T12:51:57.760Z,11.85
2022-07-25T12:54:27.412Z,13.50
2022-07-25T12:56:56.420Z,12.18
2022-07-25T12:59:25.493Z,12.98
2022-07-25T13:01:54.606Z,12.07
2022-07-25T13:04:23.995Z,13.40
2022-07-25T13:06:53.888Z,13.90
2022-07-25T13:09:23.521Z,13.27
2022-07-25T13:11:52.788Z,13.30
2022-07-25T13:14:22.493Z,13.63
2022-07-25T13:16:52.259Z,13.43
2022-07-25T13:19:21.785Z,13.25
2022-07-25T13:21:50.773Z,13.93
2022-07-25T13:24:19.939Z,12.07
2022-07-25T13:26:49.147Z,11.80
2022-07-25T13:29:19.295Z,12.25
2022-07-25T13:31:49.647Z,12.50
2022-07-25T13:34:19.613Z,11.57
2022-07-25T13:36:49.111Z,11.93
2022-07-25T13:39:18.264Z,12.77
2022-07-25T13:41:47.276Z,13.02
2022-07-25T13:44:17.334Z,13.40
2022-07-25T13:46:50.966Z,11.15
2022-07-25T13:49:20.099Z,11.48
2022-07-25T13:51:49.466Z,11.20
2022-07-25T13:54:18.662Z,10.48
2022-07-25T13:56:48.627Z,9.25
2022-07-25T13:59:21.461Z,9.13
2022-07-25T14:01:52.281Z,9.85
2022-07-25T14:04:21.804Z,9.52
2022-07-25T14:06:53.008Z,8.90
2022-07-25T14:09:22.958Z,8.30
2022-07-25T14:11:51.946Z,9.13
2022-07-25T14:14:21.015Z,9.50
2022-07-25T14:16:50.167Z,8.85
2022-07-25T14:19:19.744Z,9.57
2022-07-25T14:21:48.839Z,10.52
2022-07-25T14:24:17.814Z,11.15
2022-07-25T14:26:46.752Z,13.18
2022-07-25T14:29:15.927Z,18.35
2022-07-25T14:31:44.765Z,31.13
2022-07-25T14:34:16.620Z,37.40
2022-07-25T14:36:48.415Z,36.58
2022-07-25T14:39:18.229Z,34.63
2022-07-25T14:41:47.111Z,22.70
2022-07-25T14:44:15.839Z,19.30
2022-07-25T14:46:45.900Z,15.00
2022-07-25T14:49:15.404Z,13.50
2022-07-25T14:51:47.003Z,13.95
2022-07-25T14:54:16.181Z,11.88
2022-07-25T14:56:46.608Z,12.02
2022-07-25T14:59:15.772Z,12.07
2022-07-25T15:01:44.959Z,11.00
2022-07-25T15:04:14.572Z,11.35
2022-07-25T15:06:43.632Z,12.50
2022-07-25T15:09:12.654Z,11.95
2022-07-25T15:11:42.026Z,12.75
2022-07-25T15:14:10.985Z,11.25
2022-07-25T15:16:40.596Z,11.85
2022-07-25T15:19:17.351Z,12.82
2022-07-25T15:21:47.498Z,12.00
2022-07-25T15:24:17.329Z,12.70
2022-07-25T15:26:46.336Z,12.02
2022-07-25T15:29:21.517Z,11.52
2022-07-25T15:31:50.865Z,11.48
2022-07-25T15:34:20.259Z,12.32
2022-07-25T15:36:49.567Z,12.70
2022-07-25T15:39:20.448Z,12.35
2022-07-25T15:41:49.584Z,12.48
2022-07-25T15:44:18.612Z,12.68
2022-07-25T15:46:47.887Z,13.18
2022-07-25T15:49:17.361Z,13.45
2022-07-25T15:51:46.343Z,13.68
2022-07-25T15:54:15.331Z,13.68
2022-07-25T15:56:44.287Z,13.15
2022-07-25T15:59:14.185Z,13.35
2022-07-25T16:01:45.023Z,13.30
2022-07-25T16:04:14.351Z,14.70
2022-07-25T16:06:43.559Z,13.10
2022-07-25T16:09:13.538Z,13.13
2022-07-25T16:11:42.858Z,14.65
2022-07-25T16:14:12.319Z,14.30
2022-07-25T16:16:41.847Z,14.70
2022-07-25T16:19:11.134Z,15.18
2022-07-25T16:21:41.149Z,14.82
2022-07-25T16:24:13.009Z,16.90
2022-07-25T16:26:42.375Z,16.58
2022-07-25T16:29:11.835Z,15.18
2022-07-25T16:31:41.923Z,17.65
2022-07-25T16:34:11.034Z,17.95
2022-07-25T16:36:40.186Z,18.13
2022-07-25T16:39:10.391Z,16.63
2022-07-25T16:41:39.787Z,16.80
2022-07-25T16:44:08.756Z,16.35
2022-07-25T16:46:38.862Z,16.15
2022-07-25T16:49:08.223Z,15.93
2022-07-25T16:51:37.506Z,16.50
2022-07-25T16:54:06.888Z,15.90
2022-07-25T16:56:38.016Z,15.43
2022-07-25T16:59:08.590Z,15.80
2022-07-25T17:01:38.157Z,15.63
2022-07-25T17:04:07.061Z,14.98
2022-07-25T17:06:36.098Z,13.77
2022-07-25T17:09:06.202Z,14.85
2022-07-25T17:11:38.256Z,16.17
2022-07-25T17:14:07.456Z,16.25
2022-07-25T17:16:36.368Z,15.45
2022-07-25T17:19:05.988Z,16.38
2022-07-25T17:21:35.037Z,15.98
2022-07-25T17:24:04.073Z,16.13
2022-07-25T17:26:33.685Z,17.40
2022-07-25T17:29:02.933Z,17.75
2022-07-25T17:31:32.159Z,17.70
2022-07-25T17:34:01.928Z,15.90
2022-07-25T17:36:31.129Z,17.52
2022-07-25T17:39:00.514Z,17.08
2022-07-25T17:41:30.516Z,16.65
2022-07-25T17:43:59.480Z,16.30
2022-07-25T17:46:29.668Z,19.90
2022-07-25T17:49:00.359Z,19.38
2022-07-25T17:51:29.598Z,19.80
2022-07-25T17:53:58.595Z,17.58
2022-07-25T17:56:27.599Z,18.25
2022-07-25T17:58:56.772Z,18.55
2022-07-25T18:01:25.956Z,20.67
2022-07-25T18:03:55.096Z,20.20
2022-07-25T18:06:29.582Z,19.67
2022-07-25T18:08:59.214Z,20.10
2022-07-25T18:11:28.918Z,21.75
2022-07-25T18:13:57.826Z,20.88
2022-07-25T18:16:27.535Z,21.85
2022-07-25T18:18:56.535Z,22.23
2022-07-25T18:21:25.643Z,19.55
2022-07-25T18:23:55.140Z,21.23
2022-07-25T18:26:24.816Z,21.35
2022-07-25T18:28:53.806Z,21.75
2022-07-25T18:31:22.853Z,21.55
2022-07-25T18:33:52.059Z,21.13
2022-07-25T18:36:20.801Z,20.55
2022-07-25T18:38:51.153Z,20.10
2022-07-25T18:41:29.386Z,21.13
2022-07-25T18:44:03.750Z,21.15
2022-07-25T18:46:34.138Z,20.70
2022-07-25T18:49:03.330Z,21.60
2022-07-25T18:51:32.370Z,18.73
2022-07-25T18:54:01.295Z,21.42
2022-07-25T18:56:31.185Z,23.20
2022-07-25T18:59:00.800Z,24.35
2022-07-25T19:01:31.857Z,23.55
2022-07-25T19:04:01.132Z,21.13
2022-07-25T19:06:30.276Z,22.77
2022-07-25T19:08:59.554Z,21.88
2022-07-25T19:11:28.526Z,19.98
2022-07-25T19:13:57.591Z,19.27
2022-07-25T19:16:26.912Z,19.98
2022-07-25T19:18:56.031Z,18.90
2022-07-25T19:21:24.842Z,18.98
2022-07-25T19:23:54.643Z,19.85
2022-07-25T19:26:23.974Z,22.65
2022-07-25T19:28:53.180Z,19.25
2022-07-25T19:31:22.219Z,20.83
2022-07-25T19:33:51.732Z,19.38
2022-07-25T19:36:21.025Z,20.33
2022-07-25T19:38:50.326Z,21.70
2022-07-25T19:41:19.751Z,21.00
2022-07-25T19:43:48.998Z,23.15
2022-07-25T19:46:18.232Z,24.08
2022-07-25T19:48:47.841Z,23.63
2022-07-25T19:51:16.853Z,23.42
2022-07-25T19:53:45.756Z,23.45
2022-07-25T19:56:15.326Z,23.40
2022-07-25T19:58:46.051Z,23.60
2022-07-25T20:01:15.442Z,23.02
2022-07-25T20:03:44.997Z,22.63
2022-07-25T20:06:14.151Z,21.38
2022-07-25T20:08:43.843Z,21.33
2022-07-25T20:11:12.841Z,22.60
2022-07-25T20:13:42.386Z,20.70
2022-07-25T20:16:11.946Z,20.75
2022-07-25T20:18:40.646Z,20.38
2022-07-25T20:21:10.209Z,20.55
2022-07-25T20:23:39.427Z,20.48
2022-07-25T20:26:08.957Z,19.77
2022-07-25T20:28:39.003Z,19.13
2022-07-25T20:31:08.687Z,19.70
2022-07-25T20:33:37.826Z,19.40
2022-07-25T20:36:07.151Z,18.75
2022-07-25T20:38:36.477Z,17.40
2022-07-25T20:41:06.684Z,19.25
2022-07-25T20:43:35.828Z,18.65
2022-07-25T20:46:09.111Z,19.90
2022-07-25T20:48:38.636Z,21.70
2022-07-25T20:51:08.538Z,20.60
2022-07-25T20:53:37.673Z,20.25
2022-07-25T20:56:07.418Z,20.67
2022-07-25T20:58:36.539Z,20.80
2022-07-25T21:01:05.790Z,20.85
2022-07-25T21:03:37.397Z,22.45
2022-07-25T21:06:06.697Z,21.30
2022-07-25T21:08:35.512Z,21.60
2022-07-25T21:11:05.834Z,19.55
2022-07-25T21:13:35.086Z,20.73
2022-07-25T21:16:04.096Z,19.67
2022-07-25T21:18:33.269Z,18.45
2022-07-25T21:21:02.273Z,18.23
2022-07-25T21:23:31.306Z,17.52
2022-07-25T21:26:01.363Z,18.95
2022-07-25T21:28:30.126Z,18.42
2022-07-25T21:30:59.138Z,17.23
2022-07-25T21:33:28.108Z,18.58
2022-07-25T21:35:57.361Z,17.88
2022-07-25T21:38:28.844Z,16.80
2022-07-25T21:40:59.944Z,18.83
2022-07-25T21:43:29.167Z,19.13
2022-07-25T21:45:58.341Z,18.25
2022-07-25T21:48:45.990Z,18.17
2022-07-25T21:51:19.131Z,19.20
2022-07-25T21:53:53.324Z,20.73
2022-07-25T21:56:22.458Z,19.88
2022-07-25T21:58:51.816Z,20.90
2022-07-25T22:01:21.824Z,21.27
2022-07-25T22:03:53.009Z,19.55
2022-07-25T22:06:22.473Z,19.30
2022-07-25T22:08:51.595Z,18.92
2022-07-25T22:11:38.293Z,18.90
2022-07-25T22:14:10.019Z,17.55
2022-07-25T22:16:39.796Z,17.65
2022-07-25T22:19:09.136Z,18.10
2022-07-25T22:21:38.708Z,17.58
2022-07-25T22:24:08.199Z,16.80
2022-07-25T22:26:37.905Z,18.08
2022-07-25T22:29:07.086Z,17.20
2022-07-25T22:31:36.183Z,17.90
2022-07-25T22:34:06.121Z,17.20
2022-07-25T22:36:35.457Z,18.30
2022-07-25T22:39:05.398Z,17.30
2022-07-25T22:41:34.529Z,17.48
2022-07-25T22:44:03.853Z,16.83
2022-07-25T22:46:33.300Z,16.92
2022-07-25T22:49:02.665Z,16.90
2022-07-25T22:51:32.107Z,17.63
2022-07-25T22:54:02.068Z,19.30
2022-07-25T22:56:31.768Z,16.95
2022-07-25T22:59:00.763Z,18.00
2022-07-25T23:01:29.948Z,18.63
2022-07-25T23:03:59.068Z,20.02
2022-07-25T23:06:28.450Z,35.95
2022-07-25T23:08:57.977Z,23.23
2022-07-25T23:11:28.355Z,18.83
2022-07-25T23:13:57.344Z,19.02
2022-07-25T23:16:29.059Z,18.77
2022-07-25T23:18:58.614Z,17.80
2022-07-25T23:21:28.324Z,18.20
2022-07-25T23:23:58.596Z,18.95
2022-07-25T23:26:29.511Z,17.95
2022-07-25T23:28:58.522Z,17.83
2022-07-25T23:31:27.696Z,16.63
2022-07-25T23:33:56.872Z,18.60
2022-07-25T23:36:25.806Z,17.88
2022-07-25T23:38:55.000Z,18.55
2022-07-25T23:41:23.945Z,17.50
2022-07-25T23:43:57.457Z,17.60
2022-07-25T23:46:31.051Z,18.67
2022-07-25T23:49:00.841Z,18.63
2022-07-25T23:51:30.052Z,18.50
2022-07-25T23:53:59.478Z,18.00
2022-07-25T23:56:29.278Z,18.15
2022-07-25T23:58:58.984Z,18.73
